sensor_id;sensor_type;location;lat;lon;timestamp;P1;durP1;ratioP1;P2;durP2;ratioP2
1925;SDS011;964;42.606;23.588;2022-12-18T00:02:00;10.03;;;6.03;;
1925;SDS011;964;42.606;23.588;2022-12-18T00:04:27;7.80;;;4.80;;
1925;SDS011;964;42.606;23.588;2022-12-18T00:06:54;6.93;;;5.40;;
1925;SDS011;964;42.606;23.588;2022-12-18T00:09:20;8.80;;;5.80;;
1925;SDS011;964;42.606;23.588;2022-12-18T00:11:47;8.30;;;5.90;;
1925;SDS011;964;42.606;23.588;2022-12-18T00:14:15;9.47;;;5.70;;
1925;SDS011;964;42.606;23.588;2022-12-18T00:16:43;8.30;;;6.17;;
1925;SDS011;964;42.606;23.588;2022-12-18T00:19:10;9.40;;;6.30;;
1925;SDS011;964;42.606;23.588;2022-12-18T00:21:41;9.20;;;6.00;;
1925;SDS011;964;42.606;23.588;2022-12-18T00:24:08;6.93;;;5.43;;
1925;SDS011;964;42.606;23.588;2022-12-18T00:26:36;10.40;;;5.70;;
1925;SDS011;964;42.606;23.588;2022-12-18T00:29:05;7.57;;;5.23;;
1925;SDS011;964;42.606;23.588;2022-12-18T00:31:36;11.13;;;5.70;;
1925;SDS011;964;42.606;23.588;2022-12-18T00:34:03;6.57;;;5.33;;
1925;SDS011;964;42.606;23.588;2022-12-18T00:36:31;7.70;;;4.60;;
1925;SDS011;964;42.606;23.588;2022-12-18T00:39:00;8.40;;;5.53;;
1925;SDS011;964;42.606;23.588;2022-12-18T00:41:28;9.67;;;6.03;;
1925;SDS011;964;42.606;23.588;2022-12-18T00:44:13;8.40;;;5.67;;
1925;SDS011;964;42.606;23.588;2022-12-18T00:46:43;10.10;;;6.60;;
1925;SDS011;964;42.606;23.588;2022-12-18T00:49:10;8.10;;;5.17;;
1925;SDS011;964;42.606;23.588;2022-12-18T00:51:37;6.73;;;5.20;;
1925;SDS011;964;42.606;23.588;2022-12-18T00:54:04;7.83;;;5.30;;
1925;SDS011;964;42.606;23.588;2022-12-18T00:56:31;7.20;;;5.17;;
1925;SDS011;964;42.606;23.588;2022-12-18T00:58:57;4.93;;;3.87;;
1925;SDS011;964;42.606;23.588;2022-12-18T01:01:24;8.17;;;5.40;;
1925;SDS011;964;42.606;23.588;2022-12-18T01:03:52;7.93;;;4.63;;
1925;SDS011;964;42.606;23.588;2022-12-18T01:06:26;8.90;;;5.23;;
1925;SDS011;964;42.606;23.588;2022-12-18T01:08:53;7.00;;;5.40;;
1925;SDS011;964;42.606;23.588;2022-12-18T01:11:21;4.60;;;4.03;;
1925;SDS011;964;42.606;23.588;2022-12-18T01:13:48;14.43;;;5.37;;
1925;SDS011;964;42.606;23.588;2022-12-18T01:16:15;5.20;;;4.30;;
1925;SDS011;964;42.606;23.588;2022-12-18T01:18:42;5.37;;;4.17;;
1925;SDS011;964;42.606;23.588;2022-12-18T01:21:11;8.03;;;5.37;;
1925;SDS011;964;42.606;23.588;2022-12-18T01:23:39;6.87;;;4.33;;
1925;SDS011;964;42.606;23.588;2022-12-18T01:26:06;7.90;;;5.17;;
1925;SDS011;964;42.606;23.588;2022-12-18T01:28:33;6.07;;;4.77;;
1925;SDS011;964;42.606;23.588;2022-12-18T01:31:09;4.50;;;3.20;;
1925;SDS011;964;42.606;23.588;2022-12-18T01:33:40;7.03;;;4.10;;
1925;SDS011;964;42.606;23.588;2022-12-18T01:36:07;9.10;;;5.70;;
1925;SDS011;964;42.606;23.588;2022-12-18T01:38:36;4.87;;;3.97;;
1925;SDS011;964;42.606;23.588;2022-12-18T01:41:03;5.93;;;4.10;;
1925;SDS011;964;42.606;23.588;2022-12-18T01:43:42;8.33;;;5.23;;
1925;SDS011;964;42.606;23.588;2022-12-18T01:46:10;7.53;;;4.90;;
1925;SDS011;964;42.606;23.588;2022-12-18T01:48:38;6.77;;;4.37;;
1925;SDS011;964;42.606;23.588;2022-12-18T01:51:06;5.00;;;3.10;;
1925;SDS011;964;42.606;23.588;2022-12-18T01:53:36;7.97;;;4.60;;
1925;SDS011;964;42.606;23.588;2022-12-18T01:56:05;5.83;;;4.40;;
1925;SDS011;964;42.606;23.588;2022-12-18T01:58:34;7.07;;;4.67;;
1925;SDS011;964;42.606;23.588;2022-12-18T02:01:08;7.90;;;5.27;;
1925;SDS011;964;42.606;23.588;2022-12-18T02:03:35;6.20;;;4.10;;
1925;SDS011;964;42.606;23.588;2022-12-18T02:06:05;5.73;;;3.87;;
1925;SDS011;964;42.606;23.588;2022-12-18T02:08:38;5.17;;;4.10;;
1925;SDS011;964;42.606;23.588;2022-12-18T02:11:13;6.70;;;4.47;;
1925;SDS011;964;42.606;23.588;2022-12-18T02:13:52;6.63;;;4.17;;
1925;SDS011;964;42.606;23.588;2022-12-18T02:16:24;7.60;;;4.00;;
1925;SDS011;964;42.606;23.588;2022-12-18T02:18:57;5.97;;;4.13;;
1925;SDS011;964;42.606;23.588;2022-12-18T02:21:32;7.80;;;4.33;;
1925;SDS011;964;42.606;23.588;2022-12-18T02:24:16;6.83;;;4.43;;
1925;SDS011;964;42.606;23.588;2022-12-18T02:26:52;6.40;;;4.67;;
1925;SDS011;964;42.606;23.588;2022-12-18T02:29:23;5.53;;;3.70;;
1925;SDS011;964;42.606;23.588;2022-12-18T02:31:54;7.53;;;4.63;;
1925;SDS011;964;42.606;23.588;2022-12-18T02:34:28;5.10;;;3.50;;
1925;SDS011;964;42.606;23.588;2022-12-18T02:36:57;6.30;;;5.10;;
1925;SDS011;964;42.606;23.588;2022-12-18T02:39:27;8.30;;;5.13;;
1925;SDS011;964;42.606;23.588;2022-12-18T02:41:58;8.30;;;5.10;;
1925;SDS011;964;42.606;23.588;2022-12-18T02:44:27;8.90;;;4.50;;
1925;SDS011;964;42.606;23.588;2022-12-18T02:46:54;9.20;;;5.33;;
1925;SDS011;964;42.606;23.588;2022-12-18T02:49:23;5.40;;;3.83;;
1925;SDS011;964;42.606;23.588;2022-12-18T02:51:57;6.10;;;4.53;;
1925;SDS011;964;42.606;23.588;2022-12-18T02:54:35;6.53;;;4.37;;
1925;SDS011;964;42.606;23.588;2022-12-18T02:57:17;4.43;;;3.63;;
1925;SDS011;964;42.606;23.588;2022-12-18T02:59:50;4.90;;;3.50;;
1925;SDS011;964;42.606;23.588;2022-12-18T03:02:25;5.80;;;4.10;;
1925;SDS011;964;42.606;23.588;2022-12-18T03:04:57;5.00;;;3.50;;
1925;SDS011;964;42.606;23.588;2022-12-18T03:07:33;5.63;;;4.20;;
1925;SDS011;964;42.606;23.588;2022-12-18T03:10:03;4.97;;;3.50;;
1925;SDS011;964;42.606;23.588;2022-12-18T03:12:37;4.40;;;3.73;;
1925;SDS011;964;42.606;23.588;2022-12-18T03:15:08;6.70;;;5.53;;
1925;SDS011;964;42.606;23.588;2022-12-18T03:17:38;6.70;;;4.63;;
1925;SDS011;964;42.606;23.588;2022-12-18T03:20:12;6.67;;;4.80;;
1925;SDS011;964;42.606;23.588;2022-12-18T03:22:41;4.97;;;3.40;;
1925;SDS011;964;42.606;23.588;2022-12-18T03:25:11;5.63;;;3.97;;
1925;SDS011;964;42.606;23.588;2022-12-18T03:27:43;8.87;;;4.77;;
1925;SDS011;964;42.606;23.588;2022-12-18T03:30:15;5.83;;;3.80;;
1925;SDS011;964;42.606;23.588;2022-12-18T03:32:44;8.13;;;4.13;;
1925;SDS011;964;42.606;23.588;2022-12-18T03:35:16;5.90;;;4.43;;
1925;SDS011;964;42.606;23.588;2022-12-18T03:37:47;5.83;;;4.67;;
1925;SDS011;964;42.606;23.588;2022-12-18T03:40:13;6.30;;;4.30;;
1925;SDS011;964;42.606;23.588;2022-12-18T03:42:44;9.13;;;4.23;;
1925;SDS011;964;42.606;23.588;2022-12-18T03:45:19;6.27;;;4.67;;
1925;SDS011;964;42.606;23.588;2022-12-18T03:47:53;5.60;;;4.00;;
1925;SDS011;964;42.606;23.588;2022-12-18T03:50:27;6.73;;;4.13;;
1925;SDS011;964;42.606;23.588;2022-12-18T03:53:04;5.27;;;3.20;;
1925;SDS011;964;42.606;23.588;2022-12-18T03:55:39;10.83;;;4.80;;
1925;SDS011;964;42.606;23.588;2022-12-18T03:58:09;7.63;;;5.73;;
1925;SDS011;964;42.606;23.588;2022-12-18T04:00:39;6.37;;;4.07;;
1925;SDS011;964;42.606;23.588;2022-12-18T04:03:07;8.23;;;5.33;;
1925;SDS011;964;42.606;23.588;2022-12-18T04:05:35;8.20;;;5.50;;
1925;SDS011;964;42.606;23.588;2022-12-18T04:08:03;5.43;;;3.57;;
1925;SDS011;964;42.606;23.588;2022-12-18T04:10:31;6.37;;;3.57;;
1925;SDS011;964;42.606;23.588;2022-12-18T04:12:58;7.93;;;4.80;;
1925;SDS011;964;42.606;23.588;2022-12-18T04:15:26;10.40;;;4.47;;
1925;SDS011;964;42.606;23.588;2022-12-18T04:17:52;7.77;;;5.33;;
1925;SDS011;964;42.606;23.588;2022-12-18T04:20:19;7.20;;;4.50;;
1925;SDS011;964;42.606;23.588;2022-12-18T04:22:46;6.93;;;4.80;;
1925;SDS011;964;42.606;23.588;2022-12-18T04:25:13;5.63;;;4.50;;
1925;SDS011;964;42.606;23.588;2022-12-18T04:27:40;6.50;;;4.17;;
1925;SDS011;964;42.606;23.588;2022-12-18T04:30:07;7.30;;;4.27;;
1925;SDS011;964;42.606;23.588;2022-12-18T04:32:36;6.47;;;4.97;;
1925;SDS011;964;42.606;23.588;2022-12-18T04:35:03;8.20;;;5.10;;
1925;SDS011;964;42.606;23.588;2022-12-18T04:37:31;9.57;;;5.80;;
1925;SDS011;964;42.606;23.588;2022-12-18T04:39:58;9.20;;;5.80;;
1925;SDS011;964;42.606;23.588;2022-12-18T04:42:25;11.07;;;6.50;;
1925;SDS011;964;42.606;23.588;2022-12-18T04:44:51;6.10;;;4.90;;
1925;SDS011;964;42.606;23.588;2022-12-18T04:47:18;12.63;;;5.20;;
1925;SDS011;964;42.606;23.588;2022-12-18T04:49:46;9.43;;;5.23;;
1925;SDS011;964;42.606;23.588;2022-12-18T04:52:12;7.07;;;4.63;;
1925;SDS011;964;42.606;23.588;2022-12-18T04:54:39;6.87;;;5.60;;
1925;SDS011;964;42.606;23.588;2022-12-18T04:57:06;10.43;;;5.23;;
1925;SDS011;964;42.606;23.588;2022-12-18T04:59:33;6.43;;;5.20;;
1925;SDS011;964;42.606;23.588;2022-12-18T05:01:59;6.80;;;5.10;;
1925;SDS011;964;42.606;23.588;2022-12-18T05:04:26;9.03;;;5.50;;
1925;SDS011;964;42.606;23.588;2022-12-18T05:06:54;8.70;;;5.20;;
1925;SDS011;964;42.606;23.588;2022-12-18T05:09:21;11.60;;;6.40;;
1925;SDS011;964;42.606;23.588;2022-12-18T05:11:48;6.10;;;4.40;;
1925;SDS011;964;42.606;23.588;2022-12-18T05:14:14;8.43;;;4.60;;
1925;SDS011;964;42.606;23.588;2022-12-18T05:16:41;11.13;;;6.53;;
1925;SDS011;964;42.606;23.588;2022-12-18T05:19:08;9.43;;;5.80;;
1925;SDS011;964;42.606;23.588;2022-12-18T05:21:35;10.33;;;6.30;;
1925;SDS011;964;42.606;23.588;2022-12-18T05:24:03;9.70;;;5.87;;
1925;SDS011;964;42.606;23.588;2022-12-18T05:26:30;9.47;;;6.30;;
1925;SDS011;964;42.606;23.588;2022-12-18T05:28:57;11.40;;;7.50;;
1925;SDS011;964;42.606;23.588;2022-12-18T05:31:23;8.50;;;5.90;;
1925;SDS011;964;42.606;23.588;2022-12-18T05:33:50;13.30;;;8.63;;
1925;SDS011;964;42.606;23.588;2022-12-18T05:36:17;8.53;;;5.70;;
1925;SDS011;964;42.606;23.588;2022-12-18T05:38:43;10.17;;;6.80;;
1925;SDS011;964;42.606;23.588;2022-12-18T05:41:11;8.17;;;5.67;;
1925;SDS011;964;42.606;23.588;2022-12-18T05:43:39;8.00;;;5.10;;
1925;SDS011;964;42.606;23.588;2022-12-18T05:46:07;12.50;;;7.20;;
1925;SDS011;964;42.606;23.588;2022-12-18T05:48:35;9.67;;;6.63;;
1925;SDS011;964;42.606;23.588;2022-12-18T05:51:05;10.13;;;6.90;;
1925;SDS011;964;42.606;23.588;2022-12-18T05:53:33;13.90;;;7.37;;
1925;SDS011;964;42.606;23.588;2022-12-18T05:56:01;10.23;;;6.87;;
1925;SDS011;964;42.606;23.588;2022-12-18T05:58:30;9.60;;;5.87;;
1925;SDS011;964;42.606;23.588;2022-12-18T06:00:58;11.80;;;7.77;;
1925;SDS011;964;42.606;23.588;2022-12-18T06:03:33;8.70;;;5.70;;
1925;SDS011;964;42.606;23.588;2022-12-18T06:06:00;12.43;;;6.60;;
1925;SDS011;964;42.606;23.588;2022-12-18T06:08:26;10.63;;;6.63;;
1925;SDS011;964;42.606;23.588;2022-12-18T06:10:53;13.30;;;7.90;;
1925;SDS011;964;42.606;23.588;2022-12-18T06:13:20;13.13;;;7.47;;
1925;SDS011;964;42.606;23.588;2022-12-18T06:15:49;10.00;;;5.90;;
1925;SDS011;964;42.606;23.588;2022-12-18T06:18:15;16.00;;;7.10;;
1925;SDS011;964;42.606;23.588;2022-12-18T06:20:42;12.80;;;7.80;;
1925;SDS011;964;42.606;23.588;2022-12-18T06:23:09;14.73;;;7.80;;
1925;SDS011;964;42.606;23.588;2022-12-18T06:25:37;15.17;;;8.00;;
1925;SDS011;964;42.606;23.588;2022-12-18T06:28:04;13.70;;;8.83;;
1925;SDS011;964;42.606;23.588;2022-12-18T06:30:31;13.33;;;8.47;;
1925;SDS011;964;42.606;23.588;2022-12-18T06:32:59;11.80;;;7.20;;
1925;SDS011;964;42.606;23.588;2022-12-18T06:35:25;8.97;;;6.43;;
1925;SDS011;964;42.606;23.588;2022-12-18T06:37:52;15.47;;;10.33;;
1925;SDS011;964;42.606;23.588;2022-12-18T06:40:19;15.80;;;8.20;;
1925;SDS011;964;42.606;23.588;2022-12-18T06:42:45;14.27;;;8.60;;
1925;SDS011;964;42.606;23.588;2022-12-18T06:45:15;18.30;;;9.20;;
1925;SDS011;964;42.606;23.588;2022-12-18T06:47:42;15.13;;;8.70;;
1925;SDS011;964;42.606;23.588;2022-12-18T06:50:11;12.37;;;7.17;;
1925;SDS011;964;42.606;23.588;2022-12-18T06:52:38;14.30;;;8.57;;
1925;SDS011;964;42.606;23.588;2022-12-18T06:55:05;14.97;;;7.77;;
1925;SDS011;964;42.606;23.588;2022-12-18T06:57:33;11.57;;;7.37;;
1925;SDS011;964;42.606;23.588;2022-12-18T07:00:00;20.73;;;10.60;;
1925;SDS011;964;42.606;23.588;2022-12-18T07:02:29;20.20;;;9.23;;
1925;SDS011;964;42.606;23.588;2022-12-18T07:04:55;11.23;;;6.27;;
1925;SDS011;964;42.606;23.588;2022-12-18T07:07:23;13.17;;;7.70;;
1925;SDS011;964;42.606;23.588;2022-12-18T07:09:50;15.70;;;8.80;;
1925;SDS011;964;42.606;23.588;2022-12-18T07:12:17;17.47;;;9.60;;
1925;SDS011;964;42.606;23.588;2022-12-18T07:14:44;13.80;;;7.70;;
1925;SDS011;964;42.606;23.588;2022-12-18T07:17:11;17.43;;;8.83;;
1925;SDS011;964;42.606;23.588;2022-12-18T07:19:37;17.13;;;9.30;;
1925;SDS011;964;42.606;23.588;2022-12-18T07:22:04;16.23;;;9.17;;
1925;SDS011;964;42.606;23.588;2022-12-18T07:24:33;11.10;;;6.03;;
1925;SDS011;964;42.606;23.588;2022-12-18T07:27:00;15.20;;;8.43;;
1925;SDS011;964;42.606;23.588;2022-12-18T07:29:26;14.80;;;9.67;;
1925;SDS011;964;42.606;23.588;2022-12-18T07:31:53;12.17;;;8.07;;
1925;SDS011;964;42.606;23.588;2022-12-18T07:34:20;15.03;;;9.60;;
1925;SDS011;964;42.606;23.588;2022-12-18T07:36:46;16.70;;;9.07;;
1925;SDS011;964;42.606;23.588;2022-12-18T07:39:13;9.00;;;6.30;;
1925;SDS011;964;42.606;23.588;2022-12-18T07:41:41;11.80;;;8.17;;
1925;SDS011;964;42.606;23.588;2022-12-18T07:44:11;13.37;;;8.60;;
1925;SDS011;964;42.606;23.588;2022-12-18T07:46:38;15.60;;;8.60;;
1925;SDS011;964;42.606;23.588;2022-12-18T07:49:05;15.93;;;7.60;;
1925;SDS011;964;42.606;23.588;2022-12-18T07:51:32;10.80;;;6.87;;
1925;SDS011;964;42.606;23.588;2022-12-18T07:53:58;10.87;;;8.53;;
1925;SDS011;964;42.606;23.588;2022-12-18T07:56:25;14.77;;;8.73;;
1925;SDS011;964;42.606;23.588;2022-12-18T07:58:53;11.37;;;7.30;;
1925;SDS011;964;42.606;23.588;2022-12-18T08:01:20;11.87;;;7.10;;
1925;SDS011;964;42.606;23.588;2022-12-18T08:03:47;12.43;;;8.10;;
1925;SDS011;964;42.606;23.588;2022-12-18T08:06:13;14.20;;;8.07;;
1925;SDS011;964;42.606;23.588;2022-12-18T08:08:40;10.03;;;5.87;;
1925;SDS011;964;42.606;23.588;2022-12-18T08:11:07;13.47;;;6.80;;
1925;SDS011;964;42.606;23.588;2022-12-18T08:13:34;10.63;;;7.27;;
1925;SDS011;964;42.606;23.588;2022-12-18T08:16:03;16.43;;;8.87;;
1925;SDS011;964;42.606;23.588;2022-12-18T08:18:31;11.67;;;7.10;;
1925;SDS011;964;42.606;23.588;2022-12-18T08:21:06;16.93;;;10.00;;
1925;SDS011;964;42.606;23.588;2022-12-18T08:23:34;16.97;;;9.03;;
1925;SDS011;964;42.606;23.588;2022-12-18T08:26:01;20.63;;;10.37;;
1925;SDS011;964;42.606;23.588;2022-12-18T08:28:27;16.37;;;9.47;;
1925;SDS011;964;42.606;23.588;2022-12-18T08:30:54;16.87;;;9.17;;
1925;SDS011;964;42.606;23.588;2022-12-18T08:33:22;16.37;;;9.50;;
1925;SDS011;964;42.606;23.588;2022-12-18T08:35:49;14.47;;;8.47;;
1925;SDS011;964;42.606;23.588;2022-12-18T08:38:15;15.60;;;8.87;;
1925;SDS011;964;42.606;23.588;2022-12-18T08:40:42;20.33;;;10.07;;
1925;SDS011;964;42.606;23.588;2022-12-18T08:43:09;17.50;;;9.93;;
1925;SDS011;964;42.606;23.588;2022-12-18T08:46:08;15.37;;;8.83;;
1925;SDS011;964;42.606;23.588;2022-12-18T08:48:36;13.23;;;8.20;;
1925;SDS011;964;42.606;23.588;2022-12-18T08:51:03;16.60;;;8.60;;
1925;SDS011;964;42.606;23.588;2022-12-18T08:53:30;16.47;;;10.50;;
1925;SDS011;964;42.606;23.588;2022-12-18T08:55:57;13.97;;;8.33;;
1925;SDS011;964;42.606;23.588;2022-12-18T08:58:23;19.80;;;10.43;;
1925;SDS011;964;42.606;23.588;2022-12-18T09:00:50;18.20;;;10.27;;
1925;SDS011;964;42.606;23.588;2022-12-18T09:03:17;14.43;;;8.70;;
1925;SDS011;964;42.606;23.588;2022-12-18T09:05:48;18.70;;;10.70;;
1925;SDS011;964;42.606;23.588;2022-12-18T09:08:15;12.23;;;7.77;;
1925;SDS011;964;42.606;23.588;2022-12-18T09:10:42;18.37;;;10.03;;
1925;SDS011;964;42.606;23.588;2022-12-18T09:13:09;15.00;;;8.17;;
1925;SDS011;964;42.606;23.588;2022-12-18T09:15:40;18.40;;;9.63;;
1925;SDS011;964;42.606;23.588;2022-12-18T09:18:07;17.80;;;10.67;;
1925;SDS011;964;42.606;23.588;2022-12-18T09:20:33;23.00;;;10.13;;
1925;SDS011;964;42.606;23.588;2022-12-18T09:23:02;20.80;;;10.43;;
1925;SDS011;964;42.606;23.588;2022-12-18T09:25:29;22.07;;;9.60;;
1925;SDS011;964;42.606;23.588;2022-12-18T09:27:58;22.10;;;11.00;;
1925;SDS011;964;42.606;23.588;2022-12-18T09:30:25;18.23;;;9.60;;
1925;SDS011;964;42.606;23.588;2022-12-18T09:32:51;21.33;;;10.00;;
1925;SDS011;964;42.606;23.588;2022-12-18T09:35:20;19.33;;;9.80;;
1925;SDS011;964;42.606;23.588;2022-12-18T09:37:46;17.07;;;10.53;;
1925;SDS011;964;42.606;23.588;2022-12-18T09:40:15;18.73;;;11.27;;
1925;SDS011;964;42.606;23.588;2022-12-18T09:42:44;17.23;;;9.47;;
1925;SDS011;964;42.606;23.588;2022-12-18T09:45:17;19.17;;;10.20;;
1925;SDS011;964;42.606;23.588;2022-12-18T09:47:45;20.40;;;10.30;;
1925;SDS011;964;42.606;23.588;2022-12-18T09:50:19;18.90;;;10.00;;
1925;SDS011;964;42.606;23.588;2022-12-18T09:52:52;20.57;;;10.40;;
1925;SDS011;964;42.606;23.588;2022-12-18T09:55:25;19.20;;;10.83;;
1925;SDS011;964;42.606;23.588;2022-12-18T09:57:57;13.33;;;7.80;;
1925;SDS011;964;42.606;23.588;2022-12-18T10:00:28;17.47;;;8.63;;
1925;SDS011;964;42.606;23.588;2022-12-18T10:02:58;22.43;;;9.40;;
1925;SDS011;964;42.606;23.588;2022-12-18T10:05:28;19.20;;;10.97;;
1925;SDS011;964;42.606;23.588;2022-12-18T10:08:05;20.90;;;10.00;;
1925;SDS011;964;42.606;23.588;2022-12-18T10:10:39;16.87;;;9.70;;
1925;SDS011;964;42.606;23.588;2022-12-18T10:13:15;13.90;;;11.03;;
1925;SDS011;964;42.606;23.588;2022-12-18T10:15:51;19.87;;;9.90;;
1925;SDS011;964;42.606;23.588;2022-12-18T10:18:30;16.90;;;9.33;;
1925;SDS011;964;42.606;23.588;2022-12-18T10:21:13;17.20;;;9.93;;
1925;SDS011;964;42.606;23.588;2022-12-18T10:23:46;19.67;;;10.37;;
1925;SDS011;964;42.606;23.588;2022-12-18T10:26:23;16.37;;;10.23;;
1925;SDS011;964;42.606;23.588;2022-12-18T10:28:50;21.83;;;11.33;;
1925;SDS011;964;42.606;23.588;2022-12-18T10:31:18;21.97;;;9.63;;
1925;SDS011;964;42.606;23.588;2022-12-18T10:33:47;15.67;;;8.70;;
1925;SDS011;964;42.606;23.588;2022-12-18T10:36:14;17.03;;;8.90;;
1925;SDS011;964;42.606;23.588;2022-12-18T10:38:41;21.53;;;11.57;;
1925;SDS011;964;42.606;23.588;2022-12-18T10:41:22;16.60;;;10.00;;
1925;SDS011;964;42.606;23.588;2022-12-18T10:44:09;21.60;;;10.70;;
1925;SDS011;964;42.606;23.588;2022-12-18T10:46:38;22.03;;;10.40;;
1925;SDS011;964;42.606;23.588;2022-12-18T10:49:05;18.60;;;9.60;;
1925;SDS011;964;42.606;23.588;2022-12-18T10:51:44;18.93;;;10.73;;
1925;SDS011;964;42.606;23.588;2022-12-18T10:54:13;14.90;;;9.40;;
1925;SDS011;964;42.606;23.588;2022-12-18T10:56:43;18.37;;;9.63;;
1925;SDS011;964;42.606;23.588;2022-12-18T10:59:11;15.40;;;9.40;;
1925;SDS011;964;42.606;23.588;2022-12-18T11:01:46;15.57;;;8.80;;
1925;SDS011;964;42.606;23.588;2022-12-18T11:04:16;14.00;;;8.27;;
1925;SDS011;964;42.606;23.588;2022-12-18T11:06:52;13.30;;;7.73;;
1925;SDS011;964;42.606;23.588;2022-12-18T11:09:25;15.83;;;8.43;;
1925;SDS011;964;42.606;23.588;2022-12-18T11:11:54;15.93;;;10.40;;
1925;SDS011;964;42.606;23.588;2022-12-18T11:14:25;17.40;;;9.30;;
1925;SDS011;964;42.606;23.588;2022-12-18T11:16:53;15.20;;;8.70;;
1925;SDS011;964;42.606;23.588;2022-12-18T11:19:25;16.17;;;9.50;;
1925;SDS011;964;42.606;23.588;2022-12-18T11:21:58;16.83;;;10.40;;
1925;SDS011;964;42.606;23.588;2022-12-18T11:24:27;18.93;;;9.80;;
1925;SDS011;964;42.606;23.588;2022-12-18T11:26:58;20.03;;;10.83;;
1925;SDS011;964;42.606;23.588;2022-12-18T11:29:30;15.80;;;7.37;;
1925;SDS011;964;42.606;23.588;2022-12-18T11:32:19;16.27;;;9.27;;
1925;SDS011;964;42.606;23.588;2022-12-18T11:34:53;16.77;;;8.70;;
1925;SDS011;964;42.606;23.588;2022-12-18T11:37:27;17.73;;;9.87;;
1925;SDS011;964;42.606;23.588;2022-12-18T11:39:56;14.47;;;9.73;;
1925;SDS011;964;42.606;23.588;2022-12-18T11:42:30;19.97;;;11.00;;
1925;SDS011;964;42.606;23.588;2022-12-18T11:45:08;20.10;;;10.23;;
1925;SDS011;964;42.606;23.588;2022-12-18T11:47:52;20.20;;;9.47;;
1925;SDS011;964;42.606;23.588;2022-12-18T11:50:29;17.60;;;8.87;;
1925;SDS011;964;42.606;23.588;2022-12-18T11:53:04;17.67;;;9.90;;
1925;SDS011;964;42.606;23.588;2022-12-18T11:55:37;17.27;;;10.43;;
1925;SDS011;964;42.606;23.588;2022-12-18T11:58:14;17.60;;;8.87;;
1925;SDS011;964;42.606;23.588;2022-12-18T12:00:49;20.10;;;10.73;;
1925;SDS011;964;42.606;23.588;2022-12-18T12:03:24;15.67;;;9.20;;
1925;SDS011;964;42.606;23.588;2022-12-18T12:06:08;16.50;;;7.33;;
1925;SDS011;964;42.606;23.588;2022-12-18T12:08:48;18.13;;;10.23;;
1925;SDS011;964;42.606;23.588;2022-12-18T12:11:27;17.70;;;8.80;;
1925;SDS011;964;42.606;23.588;2022-12-18T12:14:14;10.73;;;7.37;;
1925;SDS011;964;42.606;23.588;2022-12-18T12:16:55;19.07;;;8.07;;
1925;SDS011;964;42.606;23.588;2022-12-18T12:19:32;16.53;;;7.90;;
1925;SDS011;964;42.606;23.588;2022-12-18T12:22:10;16.10;;;9.10;;
1925;SDS011;964;42.606;23.588;2022-12-18T12:24:49;16.63;;;9.60;;
1925;SDS011;964;42.606;23.588;2022-12-18T12:27:24;14.10;;;8.70;;
1925;SDS011;964;42.606;23.588;2022-12-18T12:30:04;19.73;;;9.67;;
1925;SDS011;964;42.606;23.588;2022-12-18T12:32:47;18.70;;;8.03;;
1925;SDS011;964;42.606;23.588;2022-12-18T12:35:29;16.27;;;9.97;;
1925;SDS011;964;42.606;23.588;2022-12-18T12:38:06;19.50;;;7.83;;
1925;SDS011;964;42.606;23.588;2022-12-18T12:40:38;17.30;;;9.60;;
1925;SDS011;964;42.606;23.588;2022-12-18T12:43:12;19.43;;;8.03;;
1925;SDS011;964;42.606;23.588;2022-12-18T12:45:50;14.23;;;8.53;;
1925;SDS011;964;42.606;23.588;2022-12-18T12:48:24;16.40;;;8.87;;
1925;SDS011;964;42.606;23.588;2022-12-18T12:50:59;18.47;;;8.13;;
1925;SDS011;964;42.606;23.588;2022-12-18T12:53:29;14.80;;;8.20;;
1925;SDS011;964;42.606;23.588;2022-12-18T12:56:00;18.53;;;10.83;;
1925;SDS011;964;42.606;23.588;2022-12-18T12:58:30;19.20;;;10.60;;
1925;SDS011;964;42.606;23.588;2022-12-18T13:01:08;21.53;;;9.70;;
1925;SDS011;964;42.606;23.588;2022-12-18T13:03:43;20.10;;;8.73;;
1925;SDS011;964;42.606;23.588;2022-12-18T13:06:19;19.00;;;10.57;;
1925;SDS011;964;42.606;23.588;2022-12-18T13:08:56;20.07;;;10.23;;
1925;SDS011;964;42.606;23.588;2022-12-18T13:11:31;17.43;;;8.83;;
1925;SDS011;964;42.606;23.588;2022-12-18T13:17:21;20.70;;;10.30;;
1925;SDS011;964;42.606;23.588;2022-12-18T13:22:44;20.93;;;10.87;;
1925;SDS011;964;42.606;23.588;2022-12-18T13:25:28;14.30;;;8.80;;
1925;SDS011;964;42.606;23.588;2022-12-18T13:28:00;15.97;;;8.83;;
1925;SDS011;964;42.606;23.588;2022-12-18T13:30:52;14.17;;;8.17;;
1925;SDS011;964;42.606;23.588;2022-12-18T13:33:34;17.87;;;9.60;;
1925;SDS011;964;42.606;23.588;2022-12-18T13:36:09;16.97;;;9.80;;
1925;SDS011;964;42.606;23.588;2022-12-18T13:38:40;21.73;;;11.53;;
1925;SDS011;964;42.606;23.588;2022-12-18T13:41:21;18.00;;;9.90;;
1925;SDS011;964;42.606;23.588;2022-12-18T13:43:50;19.37;;;9.97;;
1925;SDS011;964;42.606;23.588;2022-12-18T13:46:19;21.27;;;9.80;;
1925;SDS011;964;42.606;23.588;2022-12-18T13:51:50;18.90;;;9.47;;
1925;SDS011;964;42.606;23.588;2022-12-18T13:54:19;22.37;;;10.90;;
1925;SDS011;964;42.606;23.588;2022-12-18T13:56:50;14.80;;;9.50;;
1925;SDS011;964;42.606;23.588;2022-12-18T13:59:18;17.23;;;10.37;;
1925;SDS011;964;42.606;23.588;2022-12-18T14:01:48;18.93;;;10.77;;
1925;SDS011;964;42.606;23.588;2022-12-18T14:04:26;21.37;;;10.00;;
1925;SDS011;964;42.606;23.588;2022-12-18T14:06:55;19.43;;;9.97;;
1925;SDS011;964;42.606;23.588;2022-12-18T14:09:26;24.40;;;11.00;;
1925;SDS011;964;42.606;23.588;2022-12-18T14:11:55;16.10;;;9.60;;
1925;SDS011;964;42.606;23.588;2022-12-18T14:14:44;13.93;;;8.60;;
1925;SDS011;964;42.606;23.588;2022-12-18T14:17:13;21.90;;;9.10;;
1925;SDS011;964;42.606;23.588;2022-12-18T14:19:43;16.73;;;9.30;;
1925;SDS011;964;42.606;23.588;2022-12-18T14:22:14;17.90;;;9.47;;
1925;SDS011;964;42.606;23.588;2022-12-18T14:24:43;17.53;;;10.57;;
1925;SDS011;964;42.606;23.588;2022-12-18T14:27:19;20.63;;;11.53;;
1925;SDS011;964;42.606;23.588;2022-12-18T14:29:47;22.30;;;11.30;;
1925;SDS011;964;42.606;23.588;2022-12-18T14:32:15;25.10;;;12.07;;
1925;SDS011;964;42.606;23.588;2022-12-18T14:34:44;17.83;;;10.20;;
1925;SDS011;964;42.606;23.588;2022-12-18T14:37:13;17.70;;;11.40;;
1925;SDS011;964;42.606;23.588;2022-12-18T14:39:41;18.50;;;10.40;;
1925;SDS011;964;42.606;23.588;2022-12-18T14:42:18;21.37;;;11.13;;
1925;SDS011;964;42.606;23.588;2022-12-18T14:44:45;18.50;;;10.20;;
1925;SDS011;964;42.606;23.588;2022-12-18T14:47:13;22.27;;;11.70;;
1925;SDS011;964;42.606;23.588;2022-12-18T14:49:41;20.23;;;10.00;;
1925;SDS011;964;42.606;23.588;2022-12-18T14:52:16;21.20;;;10.90;;
1925;SDS011;964;42.606;23.588;2022-12-18T14:54:49;17.97;;;9.80;;
1925;SDS011;964;42.606;23.588;2022-12-18T14:57:18;16.10;;;10.13;;
1925;SDS011;964;42.606;23.588;2022-12-18T14:59:48;18.03;;;9.53;;
1925;SDS011;964;42.606;23.588;2022-12-18T15:02:18;18.00;;;11.00;;
1925;SDS011;964;42.606;23.588;2022-12-18T15:04:48;16.70;;;9.67;;
1925;SDS011;964;42.606;23.588;2022-12-18T15:07:34;17.27;;;10.47;;
1925;SDS011;964;42.606;23.588;2022-12-18T15:10:09;21.53;;;11.40;;
1925;SDS011;964;42.606;23.588;2022-12-18T15:12:39;18.83;;;10.27;;
1925;SDS011;964;42.606;23.588;2022-12-18T15:18:10;20.20;;;10.60;;
1925;SDS011;964;42.606;23.588;2022-12-18T15:20:39;20.47;;;10.00;;
1925;SDS011;964;42.606;23.588;2022-12-18T15:23:13;18.13;;;10.30;;
1925;SDS011;964;42.606;23.588;2022-12-18T15:25:46;18.97;;;9.60;;
1925;SDS011;964;42.606;23.588;2022-12-18T15:28:15;17.40;;;10.40;;
1925;SDS011;964;42.606;23.588;2022-12-18T15:31:03;17.90;;;10.43;;
1925;SDS011;964;42.606;23.588;2022-12-18T15:33:32;17.37;;;8.70;;
1925;SDS011;964;42.606;23.588;2022-12-18T15:36:02;18.83;;;10.27;;